Time;durP1;ratioP1;P1;durP2;ratioP2;P2;SDS_P1;SDS_P2;PMS_P1;PMS_P2;Temp;Humidity;BMP_temperature;BMP_pressure;BME280_temperature;BME280_humidity;BME280_pressure;Samples;Min_cycle;Max_cycle;Signal;HPM_P1;HPM_P2
2021/12/18 00:01:47;;;;;;;28.83;11.12;;;;;;;1.35;87.30;102789.88;1635350;86;20935;-76
2021/12/18 00:04:13;;;;;;;34.95;11.18;;;;;;;1.29;87.27;102790.41;1687671;84;20967;-76
2021/12/18 00:06:42;;;;;;;17.70;7.75;;;;;;;1.25;87.33;102783.77;1683523;83;20935;-76
2021/12/18 00:09:09;;;;;;;17.67;5.47;;;;;;;1.18;87.26;102786.36;1681357;83;21511;-76
2021/12/18 00:11:35;;;;;;;12.68;4.58;;;;;;;1.14;87.29;102789.92;1667677;84;20937;-76
2021/12/18 00:14:01;;;;;;;10.38;4.60;;;;;;;1.09;87.29;102793.48;1695098;83;28115;-76
2021/12/18 00:16:28;;;;;;;11.45;5.30;;;;;;;1.04;87.33;102793.61;1704720;83;20913;-76
2021/12/18 00:18:56;;;;;;;9.33;5.00;;;;;;;0.99;87.26;102795.05;1693588;83;21450;-76
2021/12/18 00:21:22;;;;;;;14.33;4.85;;;;;;;0.94;87.29;102788.41;1685920;84;20918;-76
2021/12/18 00:23:49;;;;;;;18.62;6.15;;;;;;;0.89;87.24;102792.36;1709838;83;20911;-76
2021/12/18 00:26:16;;;;;;;18.05;5.78;;;;;;;0.83;87.26;102792.40;1695028;84;20918;-76
2021/12/18 00:28:43;;;;;;;16.23;5.50;;;;;;;0.78;87.24;102793.80;1689967;83;20896;-76
2021/12/18 00:31:10;;;;;;;15.83;5.20;;;;;;;0.70;87.13;102798.44;1693357;84;20988;-77
2021/12/18 00:33:40;;;;;;;11.65;6.28;;;;;;;0.66;87.33;102801.20;1698432;83;21137;-76
2021/12/18 00:36:06;;;;;;;32.45;12.07;;;;;;;0.66;87.37;102803.73;1665848;84;21902;-76
2021/12/18 00:38:33;;;;;;;50.00;17.05;;;;;;;0.64;87.36;102805.71;1665207;83;20995;-76
2021/12/18 00:44:01;;;;;;;29.10;11.33;;;;;;;0.61;87.43;102816.98;1688085;83;21114;-76
2021/12/18 00:46:09;;;;;;;14.80;6.30;;;;;;;0.60;87.39;102821.59;1693044;83;20974;-76
2021/12/18 00:48:36;;;;;;;13.25;5.20;;;;;;;0.58;87.38;102826.98;1666225;84;21095;-76
2021/12/18 00:51:02;;;;;;;11.97;4.35;;;;;;;0.55;87.38;102827.67;1699075;83;21003;-76
2021/12/18 00:53:31;;;;;;;15.70;6.67;;;;;;;0.56;87.41;102828.16;1693273;83;21127;-76
2021/12/18 00:55:58;;;;;;;;;;;;;;;0.57;87.44;102828.64;1681714;85;21062;-76
2021/12/18 00:58:24;;;;;;;10.93;4.45;;;;;;;0.56;87.40;102834.92;1700480;82;20621;-76
2021/12/18 01:00:57;;;;;;;19.35;5.58;;;;;;;0.56;87.47;102829.83;1687346;82;21090;-76
2021/12/18 01:03:23;;;;;;;;;;;;;;;0.57;87.50;102831.59;1691644;84;21080;-76
2021/12/18 01:05:49;;;;;;;15.32;6.25;;;;;;;0.57;87.54;102836.28;1699789;83;20177;-76
2021/12/18 01:08:18;;;;;;;21.87;5.45;;;;;;;0.59;87.55;102828.73;1693522;83;21523;-76
2021/12/18 01:13:17;;;;;;;;;;;;;;;0.59;87.50;102823.26;1697893;83;21112;-76
2021/12/18 01:15:50;;;;;;;14.10;4.70;;;;;;;0.60;87.56;102813.55;1709453;83;20129;-76
2021/12/18 01:23:43;;;;;;;15.15;6.17;;;;;;;0.64;87.56;102817.16;1709253;83;20896;-76
2021/12/18 01:26:10;;;;;;;21.10;7.53;;;;;;;0.66;87.60;102816.47;1704979;83;23502;-76
2021/12/18 01:28:36;;;;;;;19.48;6.97;;;;;;;0.70;87.67;102816.26;1686011;83;20959;-76
2021/12/18 01:31:03;;;;;;;11.63;5.60;;;;;;;0.73;87.66;102810.47;1707625;83;21408;-76
2021/12/18 01:33:30;;;;;;;14.40;4.72;;;;;;;0.77;87.68;102803.50;1706845;83;21430;-76
2021/12/18 01:35:59;;;;;;;10.00;4.62;;;;;;;0.81;87.73;102801.22;1701337;83;21507;-76
2021/12/18 01:38:24;;;;;;;23.47;7.05;;;;;;;0.85;87.74;102802.28;1680422;83;20900;-76
2021/12/18 01:40:51;;;;;;;13.30;6.30;;;;;;;0.90;87.78;102802.16;1680749;84;20952;-76
2021/12/18 01:51:25;;;;;;;13.93;4.05;;;;;;;1.04;87.75;102803.80;1684698;83;21496;-76
2021/12/18 01:53:54;;;;;;;15.15;4.83;;;;;;;1.08;87.76;102805.73;1695027;83;20928;-76
2021/12/18 01:56:22;;;;;;;12.23;4.45;;;;;;;1.12;87.79;102809.34;1709232;83;21428;-76
2021/12/18 01:58:49;;;;;;;7.62;3.80;;;;;;;1.15;87.80;102810.39;1709654;83;21452;-76
2021/12/18 02:01:17;;;;;;;14.38;4.35;;;;;;;1.23;87.88;102808.29;1695693;82;20975;-76
2021/12/18 02:03:45;;;;;;;16.15;4.75;;;;;;;1.23;87.88;102808.29;1703857;82;21562;-76
2021/12/18 02:06:13;;;;;;;16.93;4.20;;;;;;;1.27;87.86;102816.19;1685184;83;20915;-77
2021/12/18 02:08:39;;;;;;;11.93;4.62;;;;;;;1.31;87.87;102807.94;1691358;83;21338;-76
2021/12/18 02:11:25;;;;;;;;;;;;;;;1.36;87.87;102807.31;1703192;83;21475;-76
2021/12/18 02:19:46;;;;;;;12.25;3.60;;;;;;;1.47;87.92;102805.86;1646600;85;21462;-76
2021/12/18 02:21:33;;;;;;;11.28;3.55;;;;;;;1.51;87.95;102801.41;1637354;85;21540;-76
2021/12/18 02:23:59;;;;;;;;;;;;;;;1.54;87.93;102802.86;1650066;85;20916;-76
2021/12/18 02:26:26;;;;;;;13.50;3.52;;;;;;;1.57;87.97;102804.27;1644129;85;20567;-76
2021/12/18 02:28:55;;;;;;;15.20;3.67;;;;;;;1.61;87.99;102802.77;1649200;84;22109;-76
2021/12/18 02:31:20;;;;;;;12.15;4.08;;;;;;;1.65;87.99;102800.88;1658596;85;20920;-76
2021/12/18 02:33:47;;;;;;;10.93;4.12;;;;;;;1.69;87.99;102809.57;1660110;85;21453;-76
2021/12/18 02:36:22;;;;;;;11.15;3.83;;;;;;;1.73;88.00;102812.38;1652387;84;21542;-76
2021/12/18 02:44:06;;;;;;;17.00;5.58;;;;;;;1.85;88.00;102804.12;1641949;86;21434;-76
2021/12/18 02:46:33;;;;;;;9.35;3.52;;;;;;;1.89;87.99;102802.61;1620256;85;21003;-76
2021/12/18 02:49:09;;;;;;;12.60;5.05;;;;;;;1.92;87.98;102798.56;1620163;87;21362;-76
2021/12/18 02:51:35;;;;;;;6.92;3.77;;;;;;;1.95;87.98;102792.74;1621674;87;21458;-76
2021/12/18 02:54:02;;;;;;;6.85;3.55;;;;;;;1.97;87.98;102789.48;1635281;87;27116;-76
2021/12/18 02:56:28;;;;;;;10.00;3.47;;;;;;;2.01;88.01;102793.08;1635298;87;25660;-76
2021/12/18 02:59:03;;;;;;;6.50;2.83;;;;;;;2.03;87.98;102796.59;1647084;86;20882;-76
2021/12/18 03:01:28;;;;;;;9.45;3.20;;;;;;;2.06;88.00;102790.77;1623604;86;20894;-76
2021/12/18 03:03:56;;;;;;;9.63;3.02;;;;;;;2.09;87.97;102790.90;1642168;86;20954;-76
2021/12/18 03:06:36;;;;;;;7.92;3.12;;;;;;;2.10;87.96;102779.90;1650615;85;21542;-76
2021/12/18 03:25:20;;;;;;;12.13;3.15;;;;;;;2.22;88.03;102764.84;1658728;86;21525;-76
2021/12/18 03:27:40;;;;;;;13.35;3.65;;;;;;;2.24;88.04;102763.23;1647755;85;20893;-76
2021/12/18 03:30:08;;;;;;;14.98;4.45;;;;;;;2.26;88.01;102762.92;1636025;86;21504;-76
2021/12/18 03:32:34;;;;;;;8.40;3.10;;;;;;;2.27;88.03;102756.14;1658267;85;21204;-76
2021/12/18 03:35:01;;;;;;;9.60;3.92;;;;;;;2.30;88.06;102754.63;1632716;86;21410;-76
2021/12/18 03:37:28;;;;;;;11.73;3.92;;;;;;;2.32;88.05;102749.60;1632619;87;21362;-76
2021/12/18 03:39:54;;;;;;;;;;;;;;;2.33;88.04;102748.41;1636532;85;21442;-77
2021/12/18 03:42:20;;;;;;;8.23;3.05;;;;;;;2.35;88.05;102748.48;1631629;86;27264;-76
2021/12/18 03:44:47;;;;;;;9.20;3.30;;;;;;;2.37;88.06;102753.67;1631742;87;22156;-76
2021/12/18 03:47:14;;;;;;;6.55;3.65;;;;;;;2.39;88.04;102752.08;1631192;85;21576;-76
2021/12/18 03:49:49;;;;;;;14.13;3.70;;;;;;;2.41;88.06;102750.48;1656444;86;21540;-76
2021/12/18 03:52:16;;;;;;;;;;;;;;;2.42;88.01;102748.40;1660425;86;21088;-76
2021/12/18 03:54:42;;;;;;;11.63;3.47;;;;;;;2.44;88.08;102755.34;1646607;85;20253;-76
2021/12/18 03:57:08;;;;;;;13.93;4.47;;;;;;;2.45;88.05;102750.72;1634471;86;21080;-76
2021/12/18 03:59:35;;;;;;;9.58;3.52;;;;;;;2.46;88.02;102749.03;1633308;85;21659;-76
2021/12/18 04:02:01;;;;;;;8.85;4.25;;;;;;;2.47;88.00;102744.01;1655520;86;21060;-76
2021/12/18 04:04:27;;;;;;;10.18;4.22;;;;;;;2.49;88.02;102741.14;1673505;84;21062;-76
2021/12/18 04:06:54;;;;;;;9.00;3.60;;;;;;;2.48;88.01;102735.55;1664791;84;21088;-76
2021/12/18 04:09:29;;;;;;;16.17;5.03;;;;;;;2.49;88.00;102732.20;1671389;83;21466;-76
2021/12/18 04:11:55;;;;;;;8.45;3.98;;;;;;;2.50;88.01;102731.40;1674713;84;21419;-76
2021/12/18 04:14:21;;;;;;;10.20;4.20;;;;;;;2.53;88.02;102732.83;1680237;84;26200;-76
2021/12/18 04:16:48;;;;;;;;;;;;;;;2.53;88.03;102719.19;1678913;83;21101;-76
2021/12/18 04:19:15;;;;;;;;;;;;;;;2.53;88.00;102709.84;1670881;84;20127;-76
2021/12/18 04:21:41;;;;;;;8.23;3.90;;;;;;;2.55;88.00;102707.38;1668618;83;25132;-76
2021/12/18 04:24:08;;;;;;;9.43;4.47;;;;;;;2.55;88.00;102698.44;1691218;84;21041;-76
2021/12/18 04:26:36;;;;;;;9.35;4.05;;;;;;;2.53;87.94;102697.48;1665625;83;21438;-76
2021/12/18 04:29:05;;;;;;;10.55;4.62;;;;;;;2.52;87.95;102690.63;1664497;86;20922;-76
2021/12/18 04:31:32;;;;;;;7.28;3.70;;;;;;;2.51;87.98;102696.12;1665059;83;20957;-76
2021/12/18 04:33:59;;;;;;;14.00;4.28;;;;;;;2.53;88.02;102689.42;1685183;84;20945;-76
2021/12/18 04:36:25;;;;;;;;;;;;;;;2.55;88.03;102685.67;1694933;84;20906;-76
2021/12/18 04:38:52;;;;;;;12.73;4.75;;;;;;;2.55;87.98;102680.56;1692631;84;20085;-76
2021/12/18 04:41:24;;;;;;;10.30;4.20;;;;;;;2.54;87.98;102677.13;1685002;83;20958;-76
2021/12/18 04:43:51;;;;;;;19.25;5.95;;;;;;;2.55;87.98;102683.11;1664459;84;20962;-76
2021/12/18 04:46:19;;;;;;;9.33;4.40;;;;;;;2.54;87.95;102687.74;1665910;83;20946;-76
2021/12/18 04:48:47;;;;;;;6.30;3.87;;;;;;;2.54;87.97;102697.56;1672897;85;20902;-76
2021/12/18 04:51:14;;;;;;;14.33;4.42;;;;;;;2.53;87.93;102698.36;1686876;83;20885;-76
2021/12/18 04:53:40;;;;;;;13.53;4.55;;;;;;;2.53;87.94;102703.86;1692603;84;20874;-76
2021/12/18 04:56:09;;;;;;;13.28;4.87;;;;;;;2.52;87.98;102711.92;1692522;84;21378;-76
2021/12/18 04:58:35;;;;;;;7.92;3.80;;;;;;;2.54;87.98;102702.67;1692756;84;20922;-76
2021/12/18 05:01:02;;;;;;;10.55;4.05;;;;;;;2.55;87.99;102698.03;1686684;83;25286;-76
2021/12/18 05:03:28;;;;;;;10.80;4.17;;;;;;;2.54;87.98;102686.06;1695378;82;21341;-76
2021/12/18 05:05:55;;;;;;;13.15;4.58;;;;;;;2.54;87.97;102688.63;1690484;83;20937;-76
2021/12/18 05:08:21;;;;;;;8.23;4.22;;;;;;;2.55;87.93;102695.48;1670518;84;20937;-76
2021/12/18 05:10:48;;;;;;;12.80;5.30;;;;;;;2.55;88.00;102700.59;1670386;85;20929;-76
2021/12/18 05:13:14;;;;;;;9.95;4.92;;;;;;;2.55;87.97;102696.76;1638780;87;20927;-76
2021/12/18 05:15:40;;;;;;;10.65;5.20;;;;;;;2.55;87.98;102698.03;1681002;84;21351;-76
2021/12/18 05:18:07;;;;;;;10.32;5.40;;;;;;;2.55;87.95;102699.71;1671880;83;21401;-76
2021/12/18 05:20:33;;;;;;;13.22;6.53;;;;;;;2.55;87.97;102699.71;1690990;83;21032;-76
2021/12/18 05:23:00;;;;;;;13.53;5.67;;;;;;;2.54;87.94;102694.13;1668868;84;21077;-76
2021/12/18 05:25:26;;;;;;;12.10;6.45;;;;;;;2.54;87.97;102695.41;1668946;85;26833;-76
2021/12/18 05:27:53;;;;;;;9.68;6.47;;;;;;;2.53;87.95;102699.64;1684023;83;21071;-76
2021/12/18 05:30:19;;;;;;;11.33;5.72;;;;;;;2.54;88.00;102697.95;1678784;83;21188;-76
2021/12/18 05:32:46;;;;;;;14.30;6.37;;;;;;;2.55;88.00;102703.14;1676223;83;21114;-76
2021/12/18 05:35:14;;;;;;;;;;;;;;;2.56;88.00;102699.79;1695514;81;21216;-76
2021/12/18 05:37:48;;;;;;;22.65;9.83;;;;;;;2.56;87.98;102689.97;1671013;84;20516;-76
2021/12/18 05:40:17;;;;;;;25.50;11.33;;;;;;;2.55;87.97;102686.95;1696311;83;21052;-76
2021/12/18 05:42:44;;;;;;;31.23;12.53;;;;;;;2.54;87.96;102695.41;1696206;83;21069;-76
2021/12/18 05:45:12;;;;;;;40.30;14.38;;;;;;;2.53;87.95;102688.14;1673205;85;21097;-76
2021/12/18 05:47:38;;;;;;;41.55;15.05;;;;;;;2.52;87.96;102688.95;1658299;84;21073;-76
2021/12/18 05:50:07;;;;;;;42.70;16.42;;;;;;;2.51;87.94;102697.41;1645357;85;21076;-76
2021/12/18 05:52:34;;;;;;;46.68;15.15;;;;;;;2.52;87.98;102694.45;1654849;84;21434;-76
2021/12/18 05:55:00;;;;;;;47.25;16.77;;;;;;;2.52;88.00;102688.06;1673835;84;21400;-76
2021/12/18 05:57:26;;;;;;;50.38;19.73;;;;;;;2.51;87.95;102694.85;1653654;85;20979;-76
2021/12/18 05:59:53;;;;;;;51.23;18.27;;;;;;;2.50;87.95;102696.92;1651543;84;20975;-76
2021/12/18 06:02:19;;;;;;;56.08;20.45;;;;;;;2.51;88.01;102688.87;1692285;84;20913;-76
2021/12/18 06:04:45;;;;;;;49.85;18.55;;;;;;;2.51;88.02;102694.85;1693703;83;20918;-76
2021/12/18 06:07:32;;;;;;;73.12;21.60;;;;;;;2.51;87.98;102692.30;1671988;84;20927;-76
2021/12/18 06:09:59;;;;;;;60.08;20.65;;;;;;;2.51;88.01;102693.58;1670934;84;21014;-76
2021/12/18 06:12:26;;;;;;;57.93;20.32;;;;;;;2.52;88.05;102695.33;1690275;83;21000;-76
2021/12/18 06:14:52;;;;;;;;;;;;;;;2.55;88.04;102694.20;1667754;84;21000;-76
2021/12/18 06:17:19;;;;;;;67.82;20.95;;;;;;;2.55;88.03;102691.65;1698351;82;108555;-76
2021/12/18 06:19:46;;;;;;;68.70;21.45;;;;;;;2.54;88.01;102686.06;1711529;83;20939;-76
2021/12/18 06:22:12;;;;;;;;;;;;;;;2.55;88.02;102697.16;1678758;83;20903;-76
2021/12/18 06:24:38;;;;;;;77.67;22.82;;;;;;;2.55;88.02;102693.33;1662573;84;25115;-76
2021/12/18 06:27:04;;;;;;;64.32;21.70;;;;;;;2.54;88.03;102689.90;1676577;82;20934;-76
2021/12/18 06:29:33;;;;;;;65.75;22.82;;;;;;;2.54;88.02;102691.58;1694444;82;21374;-76
2021/12/18 06:32:00;;;;;;;59.75;21.00;;;;;;;2.54;88.01;102689.02;1697362;82;20882;-76
2021/12/18 06:34:26;;;;;;;69.03;22.13;;;;;;;2.54;88.03;102686.06;1696039;82;21319;-76
2021/12/18 06:36:53;;;;;;;68.87;21.87;;;;;;;2.54;88.05;102685.19;1693512;82;20961;-76
2021/12/18 06:39:19;;;;;;;66.12;21.50;;;;;;;2.56;88.08;102693.41;1694786;82;20950;-76
2021/12/18 06:41:45;;;;;;;72.17;22.58;;;;;;;2.58;88.09;102698.19;1693275;82;20925;-76
2021/12/18 06:44:19;;;;;;;70.60;22.40;;;;;;;2.60;88.05;102705.92;1690794;82;20973;-76
2021/12/18 06:46:46;;;;;;;56.73;19.82;;;;;;;2.61;88.11;102699.59;1686160;82;26525;-76
2021/12/18 06:49:12;;;;;;;49.18;19.07;;;;;;;2.60;88.01;102695.71;1692797;82;21115;-76
2021/12/18 06:51:39;;;;;;;35.52;15.88;;;;;;;2.61;88.03;102693.20;1697105;82;21052;-76
2021/12/18 06:54:06;;;;;;;36.30;15.00;;;;;;;2.62;88.01;102688.97;1688814;82;21099;-76
2021/12/18 06:56:32;;;;;;;29.42;13.72;;;;;;;2.61;87.99;102695.75;1692063;83;26537;-76
2021/12/18 06:58:59;;;;;;;28.38;14.38;;;;;;;2.59;87.96;102691.00;1699428;83;21056;-76
2021/12/18 07:01:25;;;;;;;31.57;14.68;;;;;;;2.58;87.96;102690.53;1694682;82;21125;-76
2021/12/18 07:03:51;;;;;;;28.45;13.48;;;;;;;2.57;87.96;102683.67;1689170;82;21084;-76
2021/12/18 07:06:18;;;;;;;21.90;14.33;;;;;;;2.57;87.97;102672.17;1693050;83;26598;-76
2021/12/18 07:08:44;;;;;;;20.20;12.40;;;;;;;2.57;88.00;102667.06;1690377;84;21001;-76
2021/12/18 07:11:11;;;;;;;27.27;14.70;;;;;;;2.61;88.08;102671.89;1686862;83;21096;-76
2021/12/18 07:13:37;;;;;;;24.80;12.25;;;;;;;2.61;88.02;102663.83;1690131;84;21052;-76
2021/12/18 07:16:04;;;;;;;32.08;14.87;;;;;;;2.62;88.04;102661.75;1679095;84;21041;-77
2021/12/18 07:18:51;;;;;;;27.37;12.87;;;;;;;2.64;88.06;102670.77;1670895;85;21533;-77
2021/12/18 07:21:36;;;;;;;21.73;11.78;;;;;;;2.65;88.03;102667.41;1682712;84;22415;-76
2021/12/18 07:24:22;;;;;;;24.75;12.75;;;;;;;2.66;88.04;102671.72;1686929;84;21599;-76
2021/12/18 07:27:06;;;;;;;20.48;10.80;;;;;;;2.66;88.01;102672.59;1689844;84;21132;-76
2021/12/18 07:29:52;;;;;;;18.55;12.05;;;;;;;2.67;88.03;102669.64;1689880;83;21072;-76
2021/12/18 07:32:37;;;;;;;17.55;10.32;;;;;;;2.69;88.07;102670.59;1687944;83;21056;-76
2021/12/18 07:35:22;;;;;;;23.27;13.20;;;;;;;2.68;87.98;102666.69;1694617;84;20957;-76
2021/12/18 07:37:58;;;;;;;31.42;20.90;;;;;;;2.64;87.94;102674.59;1690298;82;20921;-76
2021/12/18 07:40:25;;;;;;;21.87;12.23;;;;;;;2.65;88.02;102677.23;1692588;84;20949;-76
2021/12/18 07:42:51;;;;;;;17.77;12.78;;;;;;;2.66;88.02;102671.31;1692525;83;20910;-76
2021/12/18 07:45:17;;;;;;;25.40;15.63;;;;;;;2.68;88.06;102667.97;1686041;83;21470;-76
2021/12/18 07:47:44;;;;;;;27.95;20.95;;;;;;;2.68;88.04;102661.18;1692650;84;20942;-76
2021/12/18 07:50:18;;;;;;;21.50;12.40;;;;;;;2.67;88.01;102664.53;1691405;83;20953;-76
2021/12/18 07:52:39;;;;;;;16.15;11.00;;;;;;;2.67;87.99;102665.81;1690913;82;21410;-76
2021/12/18 07:55:06;;;;;;;13.65;11.40;;;;;;;2.67;87.98;102659.42;1690926;84;20929;-76
2021/12/18 07:57:33;;;;;;;23.40;14.78;;;;;;;2.65;87.99;102660.63;1694185;83;20937;-76
2021/12/18 07:59:59;;;;;;;17.70;14.45;;;;;;;2.65;88.03;102655.92;1692568;83;20874;-76
2021/12/18 08:02:25;;;;;;;21.05;14.07;;;;;;;2.67;88.04;102644.10;1692918;83;20985;-76
2021/12/18 08:04:51;;;;;;;20.10;15.40;;;;;;;2.64;88.03;102636.29;1703255;83;21322;-76
2021/12/18 08:07:18;;;;;;;16.67;14.03;;;;;;;2.67;88.03;102642.83;1691921;83;20918;-76
2021/12/18 08:09:44;;;;;;;22.17;16.00;;;;;;;2.68;88.08;102636.91;1688981;84;21795;-76
2021/12/18 08:12:10;;;;;;;15.68;12.93;;;;;;;2.70;88.08;102641.70;1685704;83;20946;-76
2021/12/18 08:14:36;;;;;;;18.35;12.37;;;;;;;2.73;88.10;102642.25;1676894;84;21506;-76
2021/12/18 08:17:03;;;;;;;22.93;18.32;;;;;;;2.73;88.07;102634.58;1675649;83;21007;-76
2021/12/18 08:19:29;;;;;;;26.12;18.32;;;;;;;2.73;88.07;102631.62;1690448;83;21100;-77
2021/12/18 08:21:56;;;;;;;14.75;12.03;;;;;;;2.75;88.09;102630.02;1689431;84;21081;-77
2021/12/18 08:24:22;;;;;;;18.23;11.90;;;;;;;2.77;88.12;102622.44;1689436;83;26662;-77
2021/12/18 08:26:48;;;;;;;14.78;11.68;;;;;;;2.79;88.12;102633.20;1682739;84;21044;-77
2021/12/18 08:29:15;;;;;;;13.38;11.97;;;;;;;2.80;88.11;102622.58;1677625;83;21110;-77
2021/12/18 08:31:41;;;;;;;12.98;10.90;;;;;;;2.81;88.09;102623.94;1658877;85;21081;-77
2021/12/18 08:34:07;;;;;;;14.58;11.53;;;;;;;2.82;88.09;102618.42;1690890;83;21500;-77
2021/12/18 08:36:33;;;;;;;19.15;17.07;;;;;;;2.82;88.11;102610.36;1679276;83;21560;-77
2021/12/18 08:39:00;;;;;;;15.25;13.43;;;;;;;2.85;88.13;102609.63;1673155;84;21140;-76
2021/12/18 08:41:27;;;;;;;11.08;9.83;;;;;;;2.85;88.07;102610.91;1686375;83;21071;-76
2021/12/18 08:43:54;;;;;;;14.50;11.03;;;;;;;2.84;88.10;102604.91;1682992;84;21045;-76
2021/12/18 08:46:20;;;;;;;14.78;10.85;;;;;;;2.87;88.16;102604.19;1682125;83;21058;-77
2021/12/18 08:48:46;;;;;;;10.20;8.15;;;;;;;2.87;88.15;102599.95;1675439;83;21057;-77
2021/12/18 08:51:13;;;;;;;11.05;9.63;;;;;;;2.89;88.19;102600.91;1695177;84;26712;-76
2021/12/18 08:53:39;;;;;;;;;;;;;;;2.91;88.18;102600.57;1699353;84;21055;-76
2021/12/18 08:56:06;;;;;;;12.00;8.98;;;;;;;2.91;88.15;102595.86;1696032;83;26775;-76
2021/12/18 08:58:32;;;;;;;12.43;9.08;;;;;;;2.91;88.20;102591.63;1671913;83;21088;-77
2021/12/18 09:01:00;;;;;;;16.07;9.28;;;;;;;2.91;88.20;102591.63;1686463;84;21020;-77
2021/12/18 09:03:26;;;;;;;11.08;9.98;;;;;;;2.92;88.18;102591.23;1683107;83;21508;-77
2021/12/18 09:05:54;;;;;;;13.75;9.68;;;;;;;2.94;88.21;102598.56;1679403;83;21092;-76
2021/12/18 09:08:20;;;;;;;12.73;10.00;;;;;;;2.95;88.22;102592.65;1670042;85;21024;-76
2021/12/18 09:10:47;;;;;;;12.43;9.38;;;;;;;2.96;88.21;102592.72;1665578;84;21119;-76
2021/12/18 09:13:13;;;;;;;12.25;8.78;;;;;;;2.98;88.26;102595.34;1664730;85;26595;-76
2021/12/18 09:15:40;;;;;;;16.10;9.45;;;;;;;3.00;88.21;102595.02;1670175;84;21067;-76
2021/12/18 09:18:06;;;;;;;13.38;9.68;;;;;;;3.02;88.27;102593.81;1674298;84;21064;-76
2021/12/18 09:20:33;;;;;;;11.78;9.78;;;;;;;3.03;88.25;102595.56;1669771;84;21108;-76
2021/12/18 09:23:00;;;;;;;13.32;9.95;;;;;;;3.04;88.23;102596.03;1657834;85;21143;-76
2021/12/18 09:25:27;;;;;;;10.70;8.90;;;;;;;3.06;88.28;102593.15;1654206;86;20901;-76
2021/12/18 09:27:56;;;;;;;;;;;;;;;3.08;88.26;102586.42;1658075;85;20936;-76
2021/12/18 09:30:22;;;;;;;13.85;9.53;;;;;;;3.10;88.31;102584.82;1654615;84;20911;-76
2021/12/18 09:32:48;;;;;;;;;;;;;;;3.13;88.32;102580.69;1670627;85;20957;-76
2021/12/18 09:35:15;;;;;;;8.18;7.30;;;;;;;3.16;88.34;102585.95;1680986;84;20087;-76
2021/12/18 09:37:42;;;;;;;8.18;7.37;;;;;;;3.18;88.33;102572.83;1670123;85;20942;-77
2021/12/18 09:40:11;;;;;;;12.20;7.78;;;;;;;3.19;88.29;102570.75;1673518;84;24107;-76
2021/12/18 09:42:39;;;;;;;7.78;6.58;;;;;;;3.21;88.33;102565.70;1675481;85;20961;-76
2021/12/18 09:45:06;;;;;;;6.67;5.65;;;;;;;3.24;88.30;102559.45;1667597;85;21596;-76
2021/12/18 09:47:33;;;;;;;5.97;5.47;;;;;;;3.26;88.29;102548.48;1664202;84;20917;-76
2021/12/18 09:50:00;;;;;;;8.98;6.12;;;;;;;3.26;88.25;102541.22;1673611;85;21343;-77
2021/12/18 09:52:27;;;;;;;6.47;5.83;;;;;;;3.27;88.28;102546.41;1714719;83;21034;-77
2021/12/18 09:54:58;;;;;;;4.72;4.12;;;;;;;3.28;88.27;102535.37;1708618;82;25167;-76
2021/12/18 09:57:25;;;;;;;5.53;5.03;;;;;;;3.29;88.27;102535.84;1724935;81;20914;-77
2021/12/18 09:59:53;;;;;;;5.35;4.85;;;;;;;3.30;88.28;102524.81;1696974;83;33544;-77
2021/12/18 10:02:19;;;;;;;5.58;5.08;;;;;;;3.32;88.28;102521.91;1696592;83;21057;-77
2021/12/18 10:04:47;;;;;;;5.15;4.53;;;;;;;3.36;88.33;102523.33;1709804;81;21096;-74
2021/12/18 10:07:26;;;;;;;5.28;4.78;;;;;;;3.35;88.26;102521.18;1707459;83;20993;-75
2021/12/18 10:09:57;;;;;;;5.58;4.37;;;;;;;3.36;88.30;102516.94;1710725;83;20934;-74
2021/12/18 10:12:30;;;;;;;6.20;5.60;;;;;;;3.39;88.31;102519.23;1709423;83;21481;-74
2021/12/18 10:15:14;;;;;;;5.12;4.62;;;;;;;3.39;88.30;102515.39;1701895;83;20946;-74
2021/12/18 10:17:42;;;;;;;6.10;5.00;;;;;;;3.42;88.37;102508.26;1708597;83;21677;-74
2021/12/18 10:20:23;;;;;;;6.30;5.53;;;;;;;3.45;88.37;102504.15;1708853;83;21605;-74
2021/12/18 10:22:54;;;;;;;6.55;5.90;;;;;;;3.46;88.37;102494.80;1706337;83;21494;-74
2021/12/18 10:25:25;;;;;;;5.15;4.50;;;;;;;3.51;88.39;102497.15;1705897;83;21531;-74
2021/12/18 10:28:09;;;;;;;6.00;5.33;;;;;;;3.52;88.37;102497.22;1688915;84;21510;-74
2021/12/18 10:30:31;;;;;;;5.87;5.28;;;;;;;3.53;88.35;102500.24;1714952;83;21037;-74
2021/12/18 10:33:08;;;;;;;6.75;5.15;;;;;;;3.54;88.39;102495.59;1706335;82;21490;-74
2021/12/18 10:35:55;;;;;;;11.50;7.25;;;;;;;3.58;88.41;102497.48;1699428;83;21109;-74
2021/12/18 10:38:48;;;;;;;8.75;6.70;;;;;;;3.60;88.44;102493.30;1689944;83;21518;-74
2021/12/18 10:41:34;;;;;;;7.33;5.90;;;;;;;3.64;88.45;102489.16;1711663;83;21534;-74
2021/12/18 10:44:08;;;;;;;8.03;5.95;;;;;;;3.68;88.39;102486.32;1717188;83;26534;-74
2021/12/18 10:46:39;;;;;;;6.17;5.37;;;;;;;3.68;88.37;102492.31;1701200;83;21792;-74
2021/12/18 10:49:12;;;;;;;6.10;5.30;;;;;;;3.69;88.42;102494.06;1695727;83;20947;-74
2021/12/18 10:51:41;;;;;;;6.55;5.87;;;;;;;3.72;88.44;102479.25;1716966;82;20910;-74
2021/12/18 10:54:18;;;;;;;6.80;6.20;;;;;;;3.74;88.44;102477.63;1734169;82;21501;-74
2021/12/18 10:56:50;;;;;;;5.28;4.78;;;;;;;3.75;88.42;102476.41;1737473;82;21486;-74
2021/12/18 10:59:27;;;;;;;5.65;4.90;;;;;;;3.75;88.40;102464.90;1704139;82;20942;-74
2021/12/18 11:01:55;;;;;;;;;;;;;;;3.77;88.40;102464.97;1709654;82;21522;-74
2021/12/18 11:04:34;;;;;;;6.53;5.83;;;;;;;3.79;88.42;102460.78;1715375;83;20521;-74
2021/12/18 11:07:22;;;;;;;5.80;5.30;;;;;;;3.80;88.44;102465.97;1691174;83;21435;-74
2021/12/18 11:10:11;;;;;;;6.75;6.08;;;;;;;3.82;88.48;102456.67;1708690;82;20946;-74
2021/12/18 11:15:02;;;;;;;6.50;5.90;;;;;;;3.85;88.42;102446.96;1715787;83;21431;-74
2021/12/18 11:17:29;;;;;;;7.80;6.47;;;;;;;3.86;88.44;102448.30;1718028;83;21392;-74
2021/12/18 11:19:56;;;;;;;9.00;6.80;;;;;;;3.88;88.43;102442.84;1711600;83;21530;-74
2021/12/18 11:22:22;;;;;;;8.50;6.00;;;;;;;3.90;88.46;102436.51;1713011;83;24637;-74
2021/12/18 11:25:05;;;;;;;7.65;6.35;;;;;;;3.90;88.44;102437.38;1707344;83;21340;-74
2021/12/18 11:27:35;;;;;;;6.00;5.40;;;;;;;3.91;88.41;102438.25;1701488;82;21123;-74
2021/12/18 11:30:07;;;;;;;7.08;6.22;;;;;;;3.90;88.43;102428.42;1704639;83;21605;-74
2021/12/18 11:32:41;;;;;;;7.60;6.83;;;;;;;3.92;88.43;102420.81;1706685;82;21513;-74
2021/12/18 11:35:12;;;;;;;9.80;6.45;;;;;;;3.93;88.43;102418.31;1694304;83;20926;-74
2021/12/18 11:37:48;;;;;;;7.22;6.47;;;;;;;3.94;88.44;102412.79;1712741;83;20883;-74
2021/12/18 11:40:24;;;;;;;7.43;5.73;;;;;;;3.96;88.45;102404.77;1714374;83;20926;-74
2021/12/18 11:42:51;;;;;;;;;;;;;;;3.96;88.44;102400.92;1710916;83;21352;-74
2021/12/18 11:45:18;;;;;;;5.35;4.85;;;;;;;3.96;88.46;102399.23;1718230;83;20107;-74
2021/12/18 11:47:56;;;;;;;11.20;6.42;;;;;;;3.97;88.45;102395.87;1718369;83;21720;-74
2021/12/18 11:50:38;;;;;;;5.78;4.37;;;;;;;3.96;88.45;102382.61;1707333;83;21375;-74
2021/12/18 11:53:11;;;;;;;6.50;5.33;;;;;;;3.97;88.45;102381.79;1716450;83;20931;-74
2021/12/18 11:55:54;;;;;;;6.35;5.70;;;;;;;4.01;88.50;102375.52;1674543;84;20977;-74
2021/12/18 11:58:32;;;;;;;7.20;5.08;;;;;;;4.02;88.47;102368.30;1651139;86;20981;-74
2021/12/18 12:01:05;;;;;;;7.60;5.05;;;;;;;4.03;88.50;102365.80;1650423;86;20969;-74
2021/12/18 12:03:46;;;;;;;8.83;4.85;;;;;;;4.05;88.47;102359.46;1647693;85;20974;-74
2021/12/18 12:06:30;;;;;;;7.10;4.50;;;;;;;4.05;88.47;102350.50;1672149;83;20905;-74
2021/12/18 12:09:34;;;;;;;5.50;4.75;;;;;;;4.06;88.49;102350.97;1666261;84;20889;-74
2021/12/18 12:12:07;;;;;;;6.45;4.47;;;;;;;4.08;88.52;102351.91;1677689;83;20913;-74
2021/12/18 12:14:39;;;;;;;;;;;;;;;4.09;88.50;102337.88;1679237;84;20922;-74
2021/12/18 12:17:29;;;;;;;6.22;4.45;;;;;;;4.12;88.51;102334.56;1666783;84;20124;-74
2021/12/18 12:19:51;;;;;;;3.92;3.55;;;;;;;4.12;88.48;102337.12;1664410;85;21485;-74
2021/12/18 12:22:42;;;;;;;3.90;3.47;;;;;;;4.13;88.54;102340.15;1654419;84;21048;-74
2021/12/18 12:25:13;;;;;;;3.98;3.55;;;;;;;4.14;88.52;102329.97;1669846;85;20953;-74
2021/12/18 12:27:44;;;;;;;2.92;2.62;;;;;;;4.15;88.52;102325.31;1675765;84;21008;-74
2021/12/18 12:30:32;;;;;;;3.33;3.02;;;;;;;4.17;88.54;102318.53;1663562;85;20889;-74